createdAt,value
2023-05-19T00:05:55.719Z,8.90
2023-05-19T00:10:59.102Z,8.95
2023-05-19T00:16:03.690Z,9.50
2023-05-19T00:21:06.491Z,9.43
2023-05-19T00:26:09.139Z,9.77
2023-05-19T00:31:13.189Z,9.95
2023-05-19T00:36:16.014Z,9.68
2023-05-19T00:41:19.006Z,10.07
2023-05-19T00:46:23.109Z,11.20
2023-05-19T00:51:29.666Z,10.57
2023-05-19T00:56:32.832Z,9.93
2023-05-19T01:01:37.245Z,9.93
2023-05-19T01:06:40.166Z,11.55
2023-05-19T01:11:43.328Z,9.40
2023-05-19T01:16:56.579Z,11.52
2023-05-19T01:22:24.025Z,10.73
2023-05-19T01:27:45.472Z,10.50
2023-05-19T01:32:50.204Z,11.43
2023-05-19T01:37:55.447Z,11.57
2023-05-19T01:43:00.193Z,11.95
2023-05-19T01:48:05.767Z,11.23
2023-05-19T01:53:09.592Z,11.90
2023-05-19T01:58:22.507Z,12.13
2023-05-19T02:03:38.418Z,12.38
2023-05-19T02:08:44.521Z,13.80
2023-05-19T02:13:51.372Z,13.73
2023-05-19T02:18:56.555Z,13.23
2023-05-19T02:23:59.272Z,14.63
2023-05-19T02:29:01.863Z,12.57
2023-05-19T02:34:06.137Z,14.32
2023-05-19T02:39:08.828Z,14.40
2023-05-19T02:44:11.534Z,14.43
2023-05-19T02:49:15.755Z,15.63
2023-05-19T02:54:18.519Z,15.75
2023-05-19T02:59:22.051Z,14.20
2023-05-19T03:04:26.848Z,16.20
2023-05-19T03:09:29.546Z,16.63
2023-05-19T03:14:33.956Z,14.43
2023-05-19T03:19:38.071Z,16.10
2023-05-19T03:24:41.010Z,17.27
2023-05-19T03:29:43.649Z,13.47
2023-05-19T03:34:47.734Z,15.48
2023-05-19T03:39:51.793Z,19.25
2023-05-19T03:44:54.498Z,18.80
2023-05-19T03:49:58.552Z,16.40
2023-05-19T03:55:01.212Z,20.33
2023-05-19T04:00:06.093Z,16.77
2023-05-19T04:05:11.659Z,21.40
2023-05-19T04:10:14.669Z,22.08
2023-05-19T04:15:17.504Z,18.48
2023-05-19T04:20:21.573Z,20.47
2023-05-19T04:25:25.204Z,20.48
2023-05-19T04:30:28.629Z,20.05
2023-05-19T04:35:32.741Z,20.73
2023-05-19T04:40:35.504Z,19.98
2023-05-19T04:45:42.449Z,17.93
2023-05-19T04:50:48.778Z,15.90
2023-05-19T04:55:51.625Z,11.50
2023-05-19T05:00:55.706Z,11.63
2023-05-19T05:05:59.969Z,10.95
2023-05-19T05:11:03.153Z,10.32
2023-05-19T05:16:08.367Z,9.60
2023-05-19T05:21:13.394Z,8.68
2023-05-19T05:26:19.668Z,8.55
2023-05-19T05:31:22.428Z,8.52
2023-05-19T05:36:26.514Z,6.63
2023-05-19T05:41:35.010Z,5.63
2023-05-19T05:46:38.139Z,5.72
2023-05-19T05:56:57.747Z,6.03
2023-05-19T06:02:00.885Z,5.82
2023-05-19T06:07:05.147Z,5.28
2023-05-19T06:12:08.226Z,4.80
2023-05-19T06:17:10.895Z,5.10
2023-05-19T06:22:14.991Z,5.10
2023-05-19T06:27:17.676Z,5.25
2023-05-19T06:32:20.400Z,5.80
2023-05-19T06:37:25.081Z,4.97
2023-05-19T06:42:28.802Z,4.97
2023-05-19T06:47:31.605Z,5.03
2023-05-19T06:52:35.582Z,4.70
2023-05-19T06:57:38.386Z,4.38
2023-05-19T07:02:41.184Z,3.63
2023-05-19T07:07:45.290Z,4.05
2023-05-19T07:12:48.000Z,4.30
2023-05-19T07:17:50.839Z,3.80
2023-05-19T07:22:54.880Z,3.90
2023-05-19T07:27:57.740Z,3.60
2023-05-19T07:33:00.600Z,3.90
2023-05-19T07:38:04.677Z,3.80
2023-05-19T07:43:07.406Z,4.13
2023-05-19T07:48:10.179Z,3.17
2023-05-19T07:53:14.204Z,3.42
2023-05-19T07:58:17.456Z,4.15
2023-05-19T08:03:20.676Z,3.38
2023-05-19T08:08:25.177Z,3.05
2023-05-19T08:13:27.933Z,3.10
2023-05-19T08:18:30.656Z,3.20
2023-05-19T08:23:34.759Z,3.42
2023-05-19T08:28:37.422Z,2.67
2023-05-19T08:33:40.113Z,2.92
2023-05-19T08:38:44.307Z,3.15
2023-05-19T08:43:46.913Z,2.30
2023-05-19T08:48:50.508Z,2.92
2023-05-19T08:54:01.172Z,2.35
2023-05-19T08:59:04.155Z,2.40
2023-05-19T09:04:07.928Z,2.38
2023-05-19T09:09:12.482Z,2.70
2023-05-19T09:14:15.066Z,2.92
2023-05-19T09:19:17.900Z,2.95
2023-05-19T09:24:26.674Z,2.17
2023-05-19T09:29:29.324Z,2.10
2023-05-19T09:34:32.072Z,2.10
2023-05-19T09:39:36.177Z,2.28
2023-05-19T09:44:38.813Z,2.25
2023-05-19T09:49:48.463Z,2.83
2023-05-19T09:54:52.699Z,2.72
2023-05-19T09:59:58.120Z,2.50
2023-05-19T10:05:02.572Z,2.70
2023-05-19T10:10:12.599Z,2.70
2023-05-19T10:15:20.566Z,3.03
2023-05-19T10:20:27.762Z,2.70
2023-05-19T10:25:39.623Z,2.60
2023-05-19T10:30:46.896Z,2.70
2023-05-19T10:36:14.399Z,2.70
2023-05-19T10:41:28.785Z,2.60
2023-05-19T12:15:09.846Z,5.2
2023-05-19T13:18:32.051Z,3
2023-05-19T13:23:29.570Z,2.9
2023-05-19T13:28:29.387Z,3.2
2023-05-19T13:32:45.742Z,2.4
2023-05-19T13:37:46.262Z,2.2
2023-05-19T13:42:46.226Z,2.2
2023-05-19T13:47:46.498Z,2
2023-05-19T13:52:47.250Z,2.4
2023-05-19T13:57:47.141Z,2.1
2023-05-19T14:02:47.472Z,2.1
2023-05-19T14:07:47.674Z,2.3
2023-05-19T14:13:12.195Z,1.7
2023-05-19T14:17:48.929Z,1.8
2023-05-19T14:22:48.621Z,1.9
2023-05-19T14:27:48.837Z,1.8
2023-05-19T14:32:49.153Z,1.6
2023-05-19T14:37:49.371Z,1.7
2023-05-19T14:42:49.758Z,1.9
2023-05-19T14:47:50.064Z,1.9
2023-05-19T14:52:50.232Z,1.7
2023-05-19T14:57:50.535Z,1.7
2023-05-19T15:02:50.906Z,1.9
2023-05-19T15:07:51.216Z,2.1
2023-05-19T15:12:51.502Z,1.6
2023-05-19T15:17:51.913Z,1.8
2023-05-19T15:22:52.347Z,2.3
2023-05-19T15:27:52.560Z,1.8
2023-05-19T15:32:52.912Z,1.9
2023-05-19T15:37:53.216Z,1.7
2023-05-19T15:42:53.556Z,2
2023-05-19T15:47:54.345Z,2.1
2023-05-19T15:52:54.170Z,1.8
2023-05-19T15:57:54.416Z,1.9
2023-05-19T16:02:54.806Z,1.5
2023-05-19T16:08:02.489Z,1.9
2023-05-19T16:12:55.207Z,1.9
2023-05-19T16:17:55.566Z,2
2023-05-19T16:22:55.887Z,2
2023-05-19T16:27:56.257Z,1.5
2023-05-19T16:32:59.667Z,2
2023-05-19T16:37:56.981Z,2.2
2023-05-19T16:42:57.405Z,2.1
2023-05-19T16:47:57.683Z,2.2
2023-05-19T16:52:57.788Z,1.6
2023-05-19T16:57:58.086Z,1.8
2023-05-19T17:02:58.595Z,1.5
2023-05-19T17:07:58.644Z,1.8
2023-05-19T17:12:58.763Z,1.6
2023-05-19T17:17:58.997Z,1.8
2023-05-19T17:22:59.100Z,1.8
2023-05-19T17:27:59.160Z,1.6
2023-05-19T17:32:59.472Z,1.6
2023-05-19T17:38:00.583Z,1.6
2023-05-19T17:42:59.808Z,1.4
2023-05-19T17:48:00.166Z,1.7
2023-05-19T17:53:00.426Z,1.5
2023-05-19T17:58:00.483Z,1.5
2023-05-19T18:03:01.626Z,1.4
2023-05-19T18:08:03.468Z,1.6
2023-05-19T18:13:00.898Z,1.6
2023-05-19T18:18:00.576Z,1.5
2023-05-19T18:23:00.958Z,1.6
2023-05-19T18:28:00.516Z,1.8
2023-05-19T18:33:01.920Z,1.7
2023-05-19T18:38:02.376Z,1.4
2023-05-19T18:43:00.574Z,1.8
2023-05-19T18:48:00.643Z,1.9
2023-05-19T18:53:00.544Z,1.7
2023-05-19T18:58:01.222Z,1.5
2023-05-19T19:03:00.380Z,1.7
2023-05-19T19:08:00.321Z,1.8
2023-05-19T19:13:00.250Z,1.7
2023-05-19T19:18:00.266Z,2
2023-05-19T19:23:01.775Z,1.7
2023-05-19T19:28:00.156Z,1.6
2023-05-19T19:33:00.152Z,1.9
2023-05-19T19:37:59.884Z,1.4
2023-05-19T19:42:59.739Z,2
2023-05-19T19:47:59.753Z,1.9
2023-05-19T19:52:59.474Z,2.1
2023-05-19T19:57:59.388Z,1.6
2023-05-19T20:07:59.079Z,1.8
2023-05-19T20:12:59.390Z,2.1
2023-05-19T20:17:58.835Z,1.9
2023-05-19T20:22:58.634Z,1.8
2023-05-19T20:27:58.589Z,2.2
2023-05-19T20:32:58.589Z,2
2023-05-19T20:37:58.292Z,2.3
2023-05-19T20:42:58.197Z,2.3
2023-05-19T20:47:59.334Z,2.4
2023-05-19T20:52:57.978Z,2.9
2023-05-19T20:57:57.803Z,3.1
2023-05-19T21:02:57.842Z,3.1
2023-05-19T21:07:57.486Z,3.1
2023-05-19T21:12:58.819Z,3.4
2023-05-19T21:17:57.381Z,4.2
2023-05-19T21:22:57.333Z,3.5
2023-05-19T21:27:58.086Z,4.7
2023-05-19T21:32:56.747Z,4.1
2023-05-19T21:37:56.549Z,3.4
2023-05-19T21:42:56.453Z,3.3
2023-05-19T21:47:56.221Z,3.4
2023-05-19T21:52:56.057Z,3.7
2023-05-19T21:57:55.831Z,3.9
2023-05-19T22:02:55.784Z,4.1
2023-05-19T22:07:55.601Z,4
2023-05-19T22:12:55.421Z,4.2
2023-05-19T22:17:55.115Z,4.3
2023-05-19T22:22:54.924Z,4.5
2023-05-19T22:27:54.706Z,4
2023-05-19T22:32:54.478Z,4.2
2023-05-19T22:37:54.304Z,4.3
2023-05-19T22:42:54.017Z,4.3
2023-05-19T22:47:55.064Z,4.6
2023-05-19T22:52:53.565Z,4.3
2023-05-19T22:57:53.293Z,5
2023-05-19T23:02:53.115Z,4.5
2023-05-19T23:07:52.848Z,4.1
2023-05-19T23:12:52.640Z,4.9
2023-05-19T23:17:52.445Z,4.4
2023-05-19T23:22:52.123Z,5
2023-05-19T23:27:52.026Z,4.9
2023-05-19T23:32:52.906Z,5.6
2023-05-19T23:37:51.781Z,5
2023-05-19T23:42:51.355Z,4.9
2023-05-19T23:47:51.440Z,4.6
2023-05-19T23:52:50.871Z,4.5
2023-05-19T23:57:50.870Z,5
